This is the latest recevied weather packets stored in our database for station/object KK7DS. If no packets are shown the sender has not sent any weather packets the latest 10 day(s).
| Time | Temp. | Humidity | Pressure | Rain* | Wind** | Luminosity | Snow |
|---|---|---|---|---|---|---|---|
| 1777238675 | 18.89° C | 37% | 1010.1 hPa | 0 mm | - | - | - |
| 1777238170 | 18.89° C | 36% | 1010 hPa | 0 mm | - | - | - |
| 1777237612 | 18.33° C | 38% | 1010.1 hPa | 0 mm | - | - | - |
| 1777237120 | 18.33° C | 35% | 1010.2 hPa | 0 mm | - | - | - |
| 1777236102 | 18.33° C | 32% | 1010.2 hPa | 0 mm | - | - | - |
| 1777235525 | 17.78° C | 33% | 1010.2 hPa | 0 mm | - | - | - |
| 1777234975 | 17.78° C | 32% | 1010.2 hPa | 0 mm | - | - | - |
| 1777234379 | 17.78° C | 35% | 1010.2 hPa | 0 mm | - | - | - |
| 1777233854 | 17.78° C | 34% | 1010.4 hPa | 0 mm | - | - | - |
| 1777233283 | 17.22° C | 36% | 1010.4 hPa | 0 mm | - | - | - |
| 1777232725 | 17.22° C | 37% | 1010.4 hPa | 0 mm | - | - | - |
| 1777232149 | 16.67° C | 40% | 1010.5 hPa | 0 mm | - | - | - |
| 1777231555 | 16.11° C | 45% | 1010.5 hPa | 0 mm | - | - | - |
| 1777231029 | 16.11° C | 46% | 1010.4 hPa | 0 mm | - | - | - |
| 1777230465 | 15.56° C | 46% | 1010.4 hPa | 0 mm | - | - | - |
| 1777229940 | 15° C | 47% | 1010.4 hPa | 0 mm | - | - | - |
| 1777229380 | 15° C | 46% | 1010.5 hPa | 0 mm | - | - | - |
| 1777228327 | 14.44° C | 47% | 1010.4 hPa | 0 mm | - | - | - |
| 1777227795 | 14.44° C | 45% | 1010.4 hPa | 0 mm | - | - | - |
| 1777227265 | 13.89° C | 52% | 1010.4 hPa | 0 mm | - | - | - |
| 1777226763 | - | 52% | 1010.4 hPa | 0 mm | - | 1056 W/m² | - |
| 1777226742 | 13.33° C | 52% | 1010.4 hPa | 0 mm | - | - | - |
| 1777226250 | 13.33° C | 53% | 1010.3 hPa | 0 mm | - | - | - |
| 1777226218 | 12.22° C | 59% | 1009.9 hPa | 0 mm | - | - | - |
| 1777226216 | 11.67° C | 58% | 1009.8 hPa | 0 mm | - | - | - |
* Rain latest hour (hover to see other rain measurements)
** Current wind speed in m/s (hover to see current wind gust speed)